Time;durP1;ratioP1;P1;durP2;ratioP2;P2;SDS_P1;SDS_P2;PMS_P1;PMS_P2;Temp;Humidity;BMP_temperature;BMP_pressure;BME280_temperature;BME280_humidity;BME280_pressure;Samples;Min_cycle;Max_cycle;Signal;HPM_P1;HPM_P2
2023/06/09 00:00:21;;;;;;;15.85;6.82;;;11.80;99.90;;;;;;5136077;27;20051;-59
2023/06/09 00:02:50;;;;;;;18.48;7.80;;;11.80;99.90;;;;;;5111286;27;20361;-59
2023/06/09 00:05:17;;;;;;;12.48;5.70;;;11.80;99.90;;;;;;5120273;27;20042;-57
2023/06/09 00:07:47;;;;;;;14.88;6.18;;;11.80;99.90;;;;;;5132386;27;20059;-58
2023/06/09 00:10:14;;;;;;;20.90;7.60;;;11.80;99.90;;;;;;5138405;27;20043;-59
2023/06/09 00:12:42;;;;;;;24.88;6.68;;;11.80;99.90;;;;;;5140857;27;20070;-58
2023/06/09 00:15:10;;;;;;;20.27;7.63;;;11.70;99.90;;;;;;5131835;27;20054;-58
2023/06/09 00:17:39;;;;;;;15.25;7.57;;;11.80;99.90;;;;;;5114808;27;20047;-58
2023/06/09 00:20:10;;;;;;;24.13;7.03;;;11.70;99.90;;;;;;5138773;27;20079;-57
2023/06/09 00:22:42;;;;;;;18.75;7.22;;;11.70;99.90;;;;;;5115413;27;20059;-58
2023/06/09 00:25:11;;;;;;;18.10;7.43;;;11.80;99.90;;;;;;5132601;27;20070;-58
2023/06/09 00:27:38;;;;;;;19.30;7.40;;;11.70;99.90;;;;;;5137681;27;20126;-58
2023/06/09 00:30:07;;;;;;;18.40;8.30;;;11.80;99.90;;;;;;5131428;27;20047;-59
2023/06/09 00:32:34;;;;;;;17.80;7.82;;;11.70;99.90;;;;;;5116522;27;20085;-59
2023/06/09 00:35:01;;;;;;;14.98;7.20;;;11.70;99.90;;;;;;5137352;27;20043;-59
2023/06/09 00:37:30;;;;;;;22.63;8.00;;;11.70;99.90;;;;;;5132893;27;20047;-58
2023/06/09 00:39:57;;;;;;;23.63;7.18;;;11.70;99.90;;;;;;5135993;27;20048;-58
2023/06/09 00:42:24;;;;;;;18.08;6.97;;;11.70;99.90;;;;;;5117248;27;20486;-58
2023/06/09 00:44:51;;;;;;;17.63;7.25;;;11.60;99.90;;;;;;5134817;27;20099;-58
2023/06/09 00:47:18;;;;;;;20.40;7.35;;;11.70;99.90;;;;;;5118137;27;20475;-58
2023/06/09 00:49:46;;;;;;;16.35;7.35;;;11.60;99.90;;;;;;5135466;27;20096;-57
2023/06/09 00:52:13;;;;;;;17.83;7.65;;;11.60;99.90;;;;;;5135520;27;20046;-57
2023/06/09 00:54:41;;;;;;;18.08;8.25;;;11.60;99.90;;;;;;5111053;27;20498;-59
2023/06/09 00:57:08;;;;;;;22.73;7.72;;;11.70;99.90;;;;;;5134718;27;20039;-58
2023/06/09 00:59:36;;;;;;;22.83;8.13;;;11.70;99.90;;;;;;5134779;27;20047;-59
2023/06/09 01:02:04;;;;;;;23.27;7.82;;;11.70;99.90;;;;;;5129977;27;20411;-57
2023/06/09 01:04:32;;;;;;;22.55;6.78;;;11.70;99.90;;;;;;5118820;27;20081;-58
2023/06/09 01:07:09;;;;;;;16.40;7.22;;;11.70;99.90;;;;;;5132442;27;20047;-58
2023/06/09 01:09:43;;;;;;;16.65;6.78;;;11.70;99.90;;;;;;5128830;27;20056;-59
2023/06/09 01:12:20;;;;;;;15.48;6.95;;;11.70;99.90;;;;;;5116048;27;20047;-59
2023/06/09 01:14:54;;;;;;;17.75;7.60;;;11.60;99.90;;;;;;5120075;27;20125;-59
2023/06/09 01:17:23;;;;;;;25.55;6.80;;;11.70;99.90;;;;;;5134942;27;20047;-58
2023/06/09 01:19:54;;;;;;;16.15;7.80;;;11.70;99.90;;;;;;5131772;27;20054;-58
2023/06/09 01:22:36;;;;;;;23.08;6.80;;;11.60;99.90;;;;;;5132590;27;20047;-59
2023/06/09 01:25:26;;;;;;;16.33;7.53;;;11.60;99.90;;;;;;5133499;27;20043;-58
2023/06/09 01:27:57;;;;;;;19.27;6.68;;;11.60;99.90;;;;;;5134578;27;20047;-58
2023/06/09 01:30:29;;;;;;;27.85;7.97;;;11.60;99.90;;;;;;5132547;27;20563;-59
2023/06/09 01:32:58;;;;;;;21.45;7.85;;;11.60;99.90;;;;;;5117395;27;20050;-58
2023/06/09 01:35:26;;;;;;;22.33;8.45;;;11.50;99.90;;;;;;5113938;27;20043;-58
2023/06/09 01:37:54;;;;;;;21.42;8.05;;;11.70;99.90;;;;;;5134856;27;20046;-58
2023/06/09 01:40:22;;;;;;;20.35;8.93;;;11.60;99.90;;;;;;5128295;27;20410;-57
2023/06/09 01:42:49;;;;;;;19.15;7.45;;;11.60;99.90;;;;;;5136221;27;20395;-58
2023/06/09 01:45:16;;;;;;;14.55;7.10;;;11.50;99.90;;;;;;5138897;27;20065;-58
2023/06/09 01:47:43;;;;;;;18.15;7.32;;;11.60;99.90;;;;;;5130257;27;20097;-59
2023/06/09 01:50:17;;;;;;;20.80;7.38;;;11.50;99.90;;;;;;5117714;27;20103;-57
2023/06/09 01:52:52;;;;;;;15.93;7.40;;;11.60;99.90;;;;;;5131658;27;20104;-58
2023/06/09 01:55:25;;;;;;;18.43;8.27;;;11.60;99.90;;;;;;5128909;27;20047;-58
2023/06/09 01:57:56;;;;;;;19.75;8.27;;;11.20;99.90;;;;;;5135435;27;20304;-58
2023/06/09 02:00:24;;;;;;;;;;;11.60;99.90;;;;;;5132516;27;20054;-58
2023/06/09 02:02:54;;;;;;;16.75;7.68;;;11.50;99.90;;;;;;5118552;27;19919;-58
2023/06/09 02:05:22;;;;;;;28.02;8.27;;;11.50;99.90;;;;;;5113571;27;20048;-58
2023/06/09 02:07:51;;;;;;;13.27;6.72;;;11.50;99.90;;;;;;5131048;27;20109;-58
2023/06/09 02:10:20;;;;;;;18.05;7.15;;;11.50;99.90;;;;;;5136004;27;20838;-58
2023/06/09 02:12:49;;;;;;;16.58;7.00;;;11.50;99.90;;;;;;5132781;27;20043;-57
2023/06/09 02:15:16;;;;;;;13.80;7.05;;;11.50;99.90;;;;;;5132214;27;20116;-58
2023/06/09 02:17:43;;;;;;;16.13;7.43;;;11.50;99.90;;;;;;5134675;27;20047;-57
2023/06/09 02:20:11;;;;;;;17.52;8.13;;;11.60;99.90;;;;;;5128475;27;20126;-58
2023/06/09 02:22:38;;;;;;;15.05;7.65;;;11.60;99.90;;;;;;5115034;27;20047;-58
2023/06/09 02:25:05;;;;;;;22.55;7.85;;;11.50;99.90;;;;;;5115495;27;20058;-58
2023/06/09 02:27:32;;;;;;;22.15;8.68;;;11.50;99.90;;;;;;5129466;27;20054;-58
2023/06/09 02:30:01;;;;;;;21.45;8.48;;;11.50;99.90;;;;;;5134737;27;20071;-58
2023/06/09 02:32:28;;;;;;;16.02;7.55;;;11.50;99.90;;;;;;5130778;27;20104;-57
2023/06/09 02:34:55;;;;;;;17.70;8.02;;;11.50;99.90;;;;;;5131979;27;20044;-57
2023/06/09 02:37:22;;;;;;;19.05;8.35;;;11.50;99.90;;;;;;5134809;27;20054;-58
2023/06/09 02:39:49;;;;;;;31.25;8.88;;;11.50;99.90;;;;;;5057060;27;20047;-57
2023/06/09 02:42:16;;;;;;;18.13;8.82;;;11.50;99.90;;;;;;5131842;27;20048;-57
2023/06/09 02:44:43;;;;;;;22.63;9.15;;;11.50;99.90;;;;;;5127364;27;20047;-58
2023/06/09 02:47:11;;;;;;;17.67;8.32;;;11.50;99.90;;;;;;5118795;27;20046;-57
2023/06/09 02:49:38;;;;;;;20.27;7.93;;;11.50;99.90;;;;;;5128224;27;20050;-57
2023/06/09 02:52:05;;;;;;;17.48;8.57;;;11.50;99.90;;;;;;5132354;27;20096;-59
2023/06/09 02:54:32;;;;;;;21.35;8.43;;;11.50;99.90;;;;;;5134360;27;20375;-58
2023/06/09 02:56:59;;;;;;;17.92;7.80;;;11.50;99.90;;;;;;5126112;27;20088;-58
2023/06/09 02:59:26;;;;;;;14.30;7.53;;;11.50;99.90;;;;;;5135564;27;20104;-58
2023/06/09 03:01:53;;;;;;;24.95;9.25;;;11.50;99.90;;;;;;5112956;27;20058;-58
2023/06/09 03:04:21;;;;;;;20.23;8.65;;;11.50;99.90;;;;;;5109039;27;20449;-58
2023/06/09 03:06:49;;;;;;;19.27;8.38;;;11.50;99.90;;;;;;5128439;27;20050;-57
2023/06/09 03:09:18;;;;;;;18.42;8.32;;;11.50;99.90;;;;;;5132826;27;20039;-58
2023/06/09 03:11:45;;;;;;;18.17;8.48;;;11.50;99.90;;;;;;5132607;27;20053;-58
2023/06/09 03:14:13;;;;;;;17.35;8.35;;;11.50;99.90;;;;;;5126041;27;20403;-58
2023/06/09 03:16:40;;;;;;;22.45;9.35;;;11.50;99.90;;;;;;5116515;27;20050;-57
2023/06/09 03:19:07;;;;;;;16.33;8.00;;;11.50;99.90;;;;;;5129658;27;20039;-58
2023/06/09 03:21:36;;;;;;;22.58;8.60;;;11.50;99.90;;;;;;5109571;27;20043;-57
2023/06/09 03:24:04;;;;;;;20.08;8.43;;;11.50;99.90;;;;;;5131446;27;20048;-58
2023/06/09 03:26:31;;;;;;;19.10;8.20;;;11.50;99.90;;;;;;5132229;27;20527;-58
2023/06/09 03:28:58;;;;;;;24.20;8.90;;;11.50;99.90;;;;;;5132783;27;20125;-57
2023/06/09 03:31:25;;;;;;;24.77;9.35;;;11.50;99.90;;;;;;5107736;27;20447;-58
2023/06/09 03:33:52;;;;;;;16.50;7.75;;;11.60;99.90;;;;;;5134077;27;20459;-58
2023/06/09 03:36:18;;;;;;;19.42;8.02;;;11.60;99.90;;;;;;5130577;27;20035;-59
2023/06/09 03:38:47;;;;;;;21.50;7.85;;;11.60;99.90;;;;;;5128014;27;20073;-57
2023/06/09 03:41:13;;;;;;;18.42;8.00;;;11.60;99.90;;;;;;5136183;27;20043;-58
2023/06/09 03:43:40;;;;;;;19.67;8.20;;;11.60;99.90;;;;;;5115014;27;20054;-57
2023/06/09 03:46:07;;;;;;;17.65;8.30;;;11.70;99.90;;;;;;5128634;27;20047;-58
2023/06/09 03:48:34;;;;;;;19.42;7.75;;;11.70;99.90;;;;;;5119501;27;20055;-59
2023/06/09 03:51:01;;;;;;;16.42;6.65;;;11.70;99.90;;;;;;5104101;28;20100;-59
2023/06/09 03:53:28;;;;;;;13.68;6.50;;;12.00;99.90;;;;;;5114220;28;20066;-59
2023/06/09 03:55:56;;;;;;;12.88;5.22;;;12.10;99.90;;;;;;5137786;27;20046;-58
2023/06/09 03:58:23;;;;;;;19.67;7.18;;;12.60;99.90;;;;;;5132929;27;20436;-58
2023/06/09 04:00:51;;;;;;;14.38;6.53;;;12.60;99.90;;;;;;5138527;27;20418;-59
2023/06/09 04:03:18;;;;;;;18.10;6.35;;;12.80;99.90;;;;;;5131990;27;20050;-59
2023/06/09 04:05:45;;;;;;;20.90;8.27;;;12.90;99.90;;;;;;5110210;28;20104;-58
2023/06/09 04:08:12;;;;;;;18.45;8.10;;;13.00;99.90;;;;;;5132594;27;20054;-58
2023/06/09 04:10:39;;;;;;;22.45;7.35;;;13.00;99.90;;;;;;5135851;27;20387;-59
2023/06/09 04:13:09;;;;;;;15.55;8.20;;;13.10;99.90;;;;;;5135085;27;20046;-59
2023/06/09 04:15:36;;;;;;;18.27;7.68;;;13.20;99.90;;;;;;5133610;27;20072;-59
2023/06/09 04:18:03;;;;;;;19.85;7.65;;;13.50;99.90;;;;;;5129666;27;20047;-59
2023/06/09 04:20:30;;;;;;;13.00;6.78;;;13.40;99.90;;;;;;5138682;27;20096;-59
2023/06/09 04:22:57;;;;;;;15.93;6.95;;;13.70;99.90;;;;;;5131110;27;20091;-58
2023/06/09 04:25:26;;;;;;;10.93;5.80;;;13.60;99.90;;;;;;5136034;27;20038;-60
2023/06/09 04:27:54;;;;;;;19.20;6.85;;;13.80;99.90;;;;;;5130115;27;20127;-59
2023/06/09 04:30:25;;;;;;;18.17;6.30;;;13.90;99.90;;;;;;5134073;27;20094;-59
2023/06/09 04:32:52;;;;;;;20.35;6.35;;;14.30;99.90;;;;;;5111128;27;20047;-59
2023/06/09 04:35:19;;;;;;;19.35;7.03;;;14.00;99.90;;;;;;5111031;28;20051;-59
2023/06/09 04:37:48;;;;;;;25.85;7.25;;;13.90;99.90;;;;;;5130445;27;20503;-58
2023/06/09 04:40:21;;;;;;;14.85;5.72;;;14.00;99.90;;;;;;5131187;27;20043;-59
2023/06/09 04:42:51;;;;;;;13.70;6.95;;;14.20;99.90;;;;;;5133558;27;20452;-58
2023/06/09 04:45:19;;;;;;;17.52;7.25;;;13.90;99.90;;;;;;5112416;27;20053;-59
2023/06/09 04:47:48;;;;;;;17.65;5.95;;;13.80;99.90;;;;;;5142817;27;20050;-57
2023/06/09 04:50:16;;;;;;;18.30;7.57;;;13.70;99.90;;;;;;5116805;27;20108;-59
2023/06/09 04:52:44;;;;;;;19.40;6.78;;;13.60;99.90;;;;;;5135212;27;20043;-58
2023/06/09 04:55:11;;;;;;;21.00;6.43;;;13.60;99.90;;;;;;5114337;27;20094;-58
2023/06/09 04:57:38;;;;;;;14.43;6.32;;;13.50;99.90;;;;;;5115591;27;20524;-58
2023/06/09 05:00:08;;;;;;;17.25;7.20;;;13.50;99.90;;;;;;5133514;27;20130;-58
2023/06/09 05:02:35;;;;;;;15.83;7.17;;;13.50;99.90;;;;;;5120178;27;20047;-57
2023/06/09 05:05:04;;;;;;;19.83;6.68;;;13.70;99.90;;;;;;5117567;27;20118;-59
2023/06/09 05:07:30;;;;;;;17.27;6.57;;;13.70;99.90;;;;;;5123637;27;20051;-59
2023/06/09 05:09:57;;;;;;;11.95;6.03;;;13.80;99.90;;;;;;5130766;27;20441;-59
2023/06/09 05:12:25;;;;;;;18.75;6.25;;;14.20;99.90;;;;;;5115842;27;20047;-58
2023/06/09 05:14:52;;;;;;;16.40;7.88;;;14.50;99.90;;;;;;5134731;27;20045;-59
2023/06/09 05:17:18;;;;;;;22.65;6.45;;;14.70;99.90;;;;;;5124611;27;20038;-59
2023/06/09 05:19:45;;;;;;;14.88;6.68;;;14.90;99.90;;;;;;5115496;27;20112;-59
2023/06/09 05:22:14;;;;;;;15.80;6.70;;;15.00;99.90;;;;;;5127756;27;20055;-58
2023/06/09 05:24:41;;;;;;;14.25;6.13;;;15.00;99.90;;;;;;5136887;27;20047;-58
2023/06/09 05:27:08;;;;;;;18.00;7.32;;;15.40;99.90;;;;;;5123197;27;20051;-58
2023/06/09 05:29:35;;;;;;;17.73;6.13;;;15.50;99.90;;;;;;5134016;27;20050;-59
2023/06/09 05:32:02;;;;;;;17.30;6.90;;;15.50;99.90;;;;;;5128691;27;20043;-59
2023/06/09 05:34:29;;;;;;;16.48;6.63;;;15.50;99.90;;;;;;5137747;27;20066;-59
2023/06/09 05:36:56;;;;;;;11.95;6.32;;;15.50;99.90;;;;;;5132374;27;20126;-58
2023/06/09 05:39:25;;;;;;;14.57;6.07;;;15.40;99.90;;;;;;5138097;27;20408;-59
2023/06/09 05:41:52;;;;;;;13.07;6.40;;;15.50;99.90;;;;;;5119950;27;20058;-59
2023/06/09 05:44:19;;;;;;;16.17;6.65;;;15.50;99.90;;;;;;5137273;27;20441;-59
2023/06/09 05:46:45;;;;;;;19.27;6.00;;;15.70;99.90;;;;;;5132874;27;20050;-59
2023/06/09 05:49:12;;;;;;;11.70;6.55;;;15.80;99.90;;;;;;5141761;27;20398;-59
2023/06/09 05:51:39;;;;;;;11.45;4.65;;;15.80;99.90;;;;;;5134679;27;20054;-57
2023/06/09 05:54:07;;;;;;;20.30;6.82;;;16.10;99.90;;;;;;5132737;27;20047;-59
2023/06/09 05:56:37;;;;;;;14.98;5.57;;;16.20;99.90;;;;;;5138709;27;20127;-59
2023/06/09 05:59:04;;;;;;;13.27;6.30;;;16.40;99.90;;;;;;5134219;27;20132;-59
2023/06/09 06:01:32;;;;;;;16.40;6.03;;;16.40;99.90;;;;;;5136819;27;20405;-60
2023/06/09 06:03:59;;;;;;;13.60;6.43;;;16.60;99.90;;;;;;5117994;27;20119;-59
2023/06/09 06:06:26;;;;;;;15.07;5.57;;;16.70;99.90;;;;;;5139171;27;20592;-58
2023/06/09 06:08:53;;;;;;;16.25;6.32;;;17.00;99.90;;;;;;5113931;27;20059;-58
2023/06/09 06:11:20;;;;;;;14.55;5.80;;;17.10;99.90;;;;;;5136123;27;20530;-59
2023/06/09 06:13:49;;;;;;;16.17;6.32;;;17.20;99.90;;;;;;5128164;27;20054;-60
2023/06/09 06:16:16;;;;;;;15.80;5.53;;;17.30;99.90;;;;;;5139945;27;20108;-60
2023/06/09 06:18:42;;;;;;;14.93;5.82;;;17.40;99.90;;;;;;5112507;27;20099;-59
2023/06/09 06:21:11;;;;;;;14.95;5.22;;;17.70;99.90;;;;;;5138545;27;20490;-59
2023/06/09 06:23:38;;;;;;;15.88;6.50;;;18.00;99.90;;;;;;5136718;27;20042;-59
2023/06/09 06:26:05;;;;;;;12.10;5.30;;;18.20;99.90;;;;;;5118346;27;20483;-60
2023/06/09 06:28:32;;;;;;;11.88;6.03;;;18.20;99.90;;;;;;5133168;27;20118;-60
2023/06/09 06:31:00;;;;;;;12.52;5.80;;;18.30;99.90;;;;;;5137886;27;20043;-57
2023/06/09 06:33:29;;;;;;;16.50;5.90;;;18.40;99.90;;;;;;5136244;27;20047;-59
2023/06/09 06:35:57;;;;;;;11.38;5.50;;;18.60;99.90;;;;;;5135458;27;20045;-60
2023/06/09 06:38:24;;;;;;;12.00;5.20;;;18.60;99.90;;;;;;5130564;27;20511;-60
2023/06/09 06:40:51;;;;;;;13.23;4.90;;;19.00;99.90;;;;;;5135482;27;20570;-59
2023/06/09 06:43:18;;;;;;;15.23;5.95;;;19.00;99.90;;;;;;5136493;27;20566;-59
2023/06/09 06:45:45;;;;;;;16.17;6.25;;;19.10;99.90;;;;;;5135451;27;20043;-59
2023/06/09 06:48:13;;;;;;;15.63;5.60;;;19.20;99.90;;;;;;5137157;27;20045;-59
2023/06/09 06:50:40;;;;;;;15.30;6.40;;;19.40;99.90;;;;;;5130410;27;20104;-60
2023/06/09 06:53:08;;;;;;;17.15;5.50;;;19.40;99.90;;;;;;5119254;27;20478;-59
2023/06/09 06:55:35;;;;;;;12.82;5.28;;;19.60;99.90;;;;;;5115578;27;20079;-60
2023/06/09 06:58:02;;;;;;;11.85;6.20;;;19.80;99.90;;;;;;5115705;27;20055;-60
2023/06/09 07:00:29;;;;;;;11.77;5.45;;;20.10;99.90;;;;;;5131396;27;20075;-61
2023/06/09 07:02:56;;;;;;;13.02;5.22;;;20.40;99.90;;;;;;5112906;27;20047;-59
2023/06/09 07:05:25;;;;;;;14.52;4.93;;;20.70;99.90;;;;;;5134457;27;20051;-59
2023/06/09 07:07:52;;;;;;;12.93;5.32;;;21.00;99.90;;;;;;5119666;27;20104;-60
2023/06/09 07:10:20;;;;;;;11.23;5.07;;;21.10;99.90;;;;;;5134170;27;20063;-60
2023/06/09 07:12:47;;;;;;;14.57;5.40;;;21.30;99.90;;;;;;5126903;27;20044;-59
2023/06/09 07:15:14;;;;;;;11.10;4.63;;;21.60;99.90;;;;;;5131655;27;20047;-59
2023/06/09 07:17:40;;;;;;;14.27;5.25;;;21.80;99.90;;;;;;5130659;27;20039;-61
2023/06/09 07:20:09;;;;;;;13.35;4.85;;;22.20;99.90;;;;;;5111337;27;20400;-59
2023/06/09 07:22:40;;;;;;;14.18;4.75;;;22.50;99.90;;;;;;5127079;27;20559;-59
2023/06/09 07:25:08;;;;;;;14.05;4.68;;;22.60;99.90;;;;;;5113553;27;20054;-59
2023/06/09 07:27:35;;;;;;;11.98;4.43;;;22.70;99.90;;;;;;5133236;27;20034;-59
2023/06/09 07:30:02;;;;;;;13.57;4.88;;;23.20;99.90;;;;;;5109134;27;20120;-59
2023/06/09 07:32:29;;;;;;;13.13;4.97;;;23.50;99.90;;;;;;5115634;27;20562;-59
2023/06/09 07:34:57;;;;;;;12.05;4.35;;;23.80;99.90;;;;;;5125666;27;20467;-59
2023/06/09 07:37:25;;;;;;;10.48;4.85;;;23.90;99.90;;;;;;5129760;27;20505;-59
2023/06/09 07:39:53;;;;;;;10.63;4.68;;;24.00;99.90;;;;;;5133361;27;20074;-58
2023/06/09 07:42:20;;;;;;;9.60;4.05;;;24.20;99.00;;;;;;5122505;27;20039;-58
2023/06/09 07:44:47;;;;;;;11.77;5.15;;;24.30;99.70;;;;;;5132779;27;20042;-60
2023/06/09 07:47:13;;;;;;;15.15;5.32;;;24.50;99.50;;;;;;5108695;27;20051;-59
2023/06/09 07:49:40;;;;;;;12.25;4.78;;;24.80;99.40;;;;;;5128253;27;20051;-59
2023/06/09 07:52:09;;;;;;;14.90;4.50;;;25.00;98.90;;;;;;5111423;27;20047;-59
2023/06/09 07:54:35;;;;;;;15.18;4.50;;;25.10;98.00;;;;;;5136930;27;20039;-60
2023/06/09 07:57:04;;;;;;;12.10;4.55;;;25.30;97.40;;;;;;5127578;27;20089;-60
2023/06/09 07:59:31;;;;;;;10.48;4.43;;;25.30;95.30;;;;;;5134751;27;20039;-59
2023/06/09 08:01:58;;;;;;;11.90;5.10;;;25.50;97.10;;;;;;5111406;28;20483;-60
2023/06/09 08:04:26;;;;;;;10.10;4.35;;;25.70;97.00;;;;;;5134775;27;20095;-59
2023/06/09 08:06:54;;;;;;;10.75;4.15;;;25.90;96.20;;;;;;5125358;27;20055;-59
2023/06/09 08:09:21;;;;;;;6.68;3.72;;;26.10;95.70;;;;;;5133900;27;20510;-60
2023/06/09 08:11:48;;;;;;;9.48;4.22;;;26.30;95.30;;;;;;5133054;27;20122;-59
2023/06/09 08:14:16;;;;;;;11.00;4.68;;;26.30;95.30;;;;;;5108102;27;20052;-60
2023/06/09 08:16:43;;;;;;;13.27;4.63;;;26.50;94.60;;;;;;5137189;27;20043;-60
2023/06/09 08:19:10;;;;;;;8.75;3.50;;;26.60;94.60;;;;;;5135343;27;20043;-61
2023/06/09 08:21:42;;;;;;;7.88;4.15;;;26.80;94.60;;;;;;5134654;27;20403;-60
2023/06/09 08:24:09;;;;;;;15.55;4.82;;;26.70;94.00;;;;;;5133459;27;20187;-59
2023/06/09 08:26:36;;;;;;;7.25;4.50;;;27.10;93.80;;;;;;5137366;27;20096;-59
2023/06/09 08:29:03;;;;;;;8.25;3.90;;;27.30;93.50;;;;;;5098937;27;20051;-60
2023/06/09 08:31:31;;;;;;;8.80;4.18;;;27.40;93.40;;;;;;5100732;27;20100;-60
2023/06/09 08:33:58;;;;;;;9.10;4.15;;;27.60;92.90;;;;;;5117173;27;20071;-60
2023/06/09 08:36:25;;;;;;;11.00;4.30;;;28.00;92.80;;;;;;5119829;27;20072;-59
2023/06/09 08:38:52;;;;;;;8.38;4.32;;;27.80;92.10;;;;;;5135623;27;20041;-60
2023/06/09 08:41:24;;;;;;;8.00;4.25;;;28.00;92.20;;;;;;5135227;27;20095;-58
2023/06/09 08:43:51;;;;;;;8.20;4.10;;;28.20;90.80;;;;;;5114376;27;20078;-60
2023/06/09 08:46:20;;;;;;;8.10;4.18;;;28.40;91.60;;;;;;5126333;27;20043;-60
2023/06/09 08:48:51;;;;;;;7.72;3.70;;;28.80;91.50;;;;;;5104720;27;20047;-59
2023/06/09 08:51:21;;;;;;;8.60;3.63;;;28.80;89.60;;;;;;5132196;27;20066;-59
2023/06/09 08:53:51;;;;;;;8.90;3.92;;;28.90;89.50;;;;;;5127732;27;20519;-60
2023/06/09 08:56:18;;;;;;;7.45;4.00;;;29.20;90.10;;;;;;5122808;27;20395;-59
2023/06/09 08:58:47;;;;;;;8.30;3.85;;;29.40;89.20;;;;;;5116890;27;20047;-61
2023/06/09 09:01:14;;;;;;;10.13;3.78;;;29.30;86.80;;;;;;5106240;27;20462;-59
2023/06/09 09:03:41;;;;;;;9.35;4.00;;;29.40;86.20;;;;;;5116021;27;20495;-60
2023/06/09 09:06:11;;;;;;;7.30;3.15;;;29.40;86.30;;;;;;5123729;27;20410;-60
2023/06/09 09:08:38;;;;;;;9.40;3.80;;;29.70;86.50;;;;;;5134914;27;20521;-60
2023/06/09 09:11:05;;;;;;;8.45;3.75;;;29.80;85.00;;;;;;5133064;27;20047;-59
2023/06/09 09:13:32;;;;;;;10.35;3.80;;;30.00;84.00;;;;;;5131726;27;20083;-60
2023/06/09 09:16:01;;;;;;;7.57;3.63;;;30.10;84.80;;;;;;5129561;27;20122;-59
2023/06/09 09:18:31;;;;;;;9.18;3.47;;;30.40;84.90;;;;;;5114469;27;20054;-60
2023/06/09 09:20:58;;;;;;;9.38;3.97;;;30.40;83.10;;;;;;5113272;27;20432;-60
2023/06/09 09:23:31;;;;;;;9.45;3.28;;;30.50;82.40;;;;;;5099190;27;20138;-59
2023/06/09 09:25:59;;;;;;;10.05;3.63;;;30.60;81.10;;;;;;5116307;27;20054;-59
2023/06/09 09:28:38;;;;;;;8.88;3.38;;;30.70;82.30;;;;;;5100432;27;20487;-60
2023/06/09 09:31:08;;;;;;;7.15;4.15;;;30.70;81.70;;;;;;5113831;27;20432;-60
2023/06/09 09:33:37;;;;;;;9.32;3.95;;;30.50;80.50;;;;;;5122242;27;20039;-59
2023/06/09 09:36:09;;;;;;;8.27;3.70;;;30.40;80.30;;;;;;5134914;27;20126;-60
2023/06/09 09:38:37;;;;;;;8.07;3.58;;;30.50;80.80;;;;;;5105051;27;20043;-59
2023/06/09 09:41:05;;;;;;;7.97;3.80;;;30.80;79.90;;;;;;5137499;27;20112;-59
2023/06/09 09:43:32;;;;;;;8.60;4.13;;;30.80;79.30;;;;;;5140547;27;20039;-60
2023/06/09 09:46:04;;;;;;;6.00;3.45;;;31.10;79.40;;;;;;5133517;27;20043;-61
2023/06/09 09:48:31;;;;;;;8.10;3.28;;;31.10;78.90;;;;;;5109555;27;20059;-60
2023/06/09 09:50:58;;;;;;;7.85;3.88;;;31.10;78.80;;;;;;5126392;27;20107;-61
2023/06/09 09:53:27;;;;;;;7.10;4.15;;;31.50;78.20;;;;;;5133472;27;20039;-60
2023/06/09 09:55:56;;;;;;;9.35;3.42;;;31.40;76.80;;;;;;5129418;27;20415;-61
2023/06/09 09:58:29;;;;;;;7.22;3.45;;;31.40;77.40;;;;;;5113418;27;20100;-61
2023/06/09 10:00:58;;;;;;;6.55;2.95;;;31.40;76.60;;;;;;5132616;27;20486;-61
2023/06/09 10:03:26;;;;;;;10.75;3.85;;;31.60;77.00;;;;;;5115446;27;20043;-60
2023/06/09 10:05:55;;;;;;;7.35;3.33;;;31.40;76.80;;;;;;5098755;27;20124;-60
2023/06/09 10:08:24;;;;;;;7.75;3.75;;;31.80;76.50;;;;;;5134079;27;20050;-60
2023/06/09 10:10:52;;;;;;;9.35;3.35;;;31.80;75.50;;;;;;5103527;27;20047;-60
2023/06/09 10:13:22;;;;;;;7.63;3.40;;;31.70;74.80;;;;;;5135577;27;20088;-61
2023/06/09 10:15:50;;;;;;;8.93;3.58;;;31.90;75.40;;;;;;5122782;27;20051;-62
2023/06/09 10:18:17;;;;;;;7.50;3.60;;;31.80;75.70;;;;;;5113237;27;20498;-60
2023/06/09 10:20:45;;;;;;;8.18;3.63;;;32.20;75.50;;;;;;5114102;27;20486;-62
2023/06/09 10:23:12;;;;;;;8.27;2.97;;;32.30;75.00;;;;;;5115128;27;20047;-60
2023/06/09 10:25:41;;;;;;;6.05;3.42;;;32.50;75.20;;;;;;5131861;27;20130;-60
2023/06/09 10:28:08;;;;;;;5.60;2.63;;;32.70;74.60;;;;;;5146107;27;20103;-60
2023/06/09 10:30:37;;;;;;;8.88;3.10;;;32.90;74.90;;;;;;5137006;27;20084;-60
2023/06/09 10:33:12;;;;;;;7.43;3.33;;;32.70;74.90;;;;;;5131230;27;20510;-61
2023/06/09 10:35:40;;;;;;;6.70;3.30;;;33.00;73.70;;;;;;5123792;27;20551;-61
2023/06/09 10:38:25;;;;;;;7.38;3.47;;;33.30;74.20;;;;;;5127312;27;20043;-61
2023/06/09 10:40:58;;;;;;;5.65;3.28;;;33.10;73.30;;;;;;5124873;27;20055;-63
2023/06/09 10:43:49;;;;;;;5.47;3.33;;;33.00;73.40;;;;;;5103058;27;20051;-60
2023/06/09 10:46:17;;;;;;;7.68;2.88;;;33.40;73.50;;;;;;5128357;27;20483;-60
2023/06/09 10:48:45;;;;;;;6.30;3.60;;;33.10;72.70;;;;;;5104966;27;20564;-60
2023/06/09 10:51:40;;;;;;;7.90;3.67;;;33.20;73.20;;;;;;5133490;27;20312;-60
2023/06/09 10:54:24;;;;;;;8.90;3.90;;;33.00;71.90;;;;;;5083637;27;20309;-59
2023/06/09 10:56:55;;;;;;;8.70;3.78;;;33.00;73.50;;;;;;5128539;27;20043;-61
2023/06/09 10:59:59;;;;;;;5.75;3.10;;;33.10;73.50;;;;;;5083960;27;20045;-61
2023/06/09 11:02:27;;;;;;;5.68;3.42;;;33.60;74.00;;;;;;5136302;27;20039;-60
2023/06/09 11:04:55;;;;;;;7.93;3.40;;;34.00;74.80;;;;;;5133108;27;20100;-58
2023/06/09 11:07:24;;;;;;;8.50;4.35;;;34.00;73.60;;;;;;5120525;27;20048;-60
2023/06/09 11:10:11;;;;;;;;;;;33.90;72.50;;;;;;5132454;27;20084;-59
2023/06/09 11:12:45;;;;;;;10.60;3.67;;;33.60;72.20;;;;;;5128446;27;19959;-59
2023/06/09 11:15:12;;;;;;;6.28;3.47;;;33.60;72.70;;;;;;5133006;27;20075;-59
2023/06/09 11:17:41;;;;;;;6.60;3.63;;;34.10;73.20;;;;;;5124596;27;20503;-60
2023/06/09 11:20:14;;;;;;;8.55;3.95;;;34.40;73.10;;;;;;5113121;27;20138;-61
2023/06/09 11:23:03;;;;;;;9.35;4.72;;;34.10;70.50;;;;;;5113837;27;20055;-59
2023/06/09 11:25:42;;;;;;;8.05;4.00;;;34.20;70.90;;;;;;5118755;27;20483;-60
2023/06/09 11:28:20;;;;;;;10.55;3.30;;;34.40;71.50;;;;;;5114534;27;20130;-61
2023/06/09 11:31:08;;;;;;;7.83;3.00;;;34.20;70.80;;;;;;5112512;28;20055;-60
2023/06/09 11:33:47;;;;;;;6.22;3.80;;;34.20;70.50;;;;;;5112811;28;20058;-60
2023/06/09 11:36:18;;;;;;;7.50;3.78;;;34.60;71.10;;;;;;5130102;28;20415;-60
2023/06/09 11:38:46;;;;;;;6.53;3.35;;;34.60;70.10;;;;;;5113763;28;20051;-59
2023/06/09 11:41:14;;;;;;;4.88;3.00;;;34.90;71.50;;;;;;5132199;28;20099;-60
2023/06/09 11:43:50;;;;;;;6.05;3.17;;;35.30;71.20;;;;;;5110519;28;20051;-60
2023/06/09 11:46:18;;;;;;;7.55;3.75;;;35.00;70.10;;;;;;5131905;28;20039;-60
2023/06/09 11:49:10;;;;;;;5.13;3.00;;;35.00;70.20;;;;;;5126556;27;20066;-60
2023/06/09 11:52:02;;;;;;;8.05;3.60;;;35.10;69.50;;;;;;5130644;28;20875;-60
2023/06/09 11:54:46;;;;;;;7.25;3.63;;;35.20;69.00;;;;;;5130823;27;20450;-60
2023/06/09 11:57:15;;;;;;;6.50;3.10;;;34.90;69.20;;;;;;5136280;27;20486;-59
2023/06/09 11:59:42;;;;;;;6.57;3.53;;;35.10;69.90;;;;;;5132801;27;20082;-60
2023/06/09 12:02:11;;;;;;;11.35;3.13;;;35.40;70.10;;;;;;5135953;27;20043;-60
2023/06/09 12:04:43;;;;;;;;;;;35.10;68.40;;;;;;5135751;27;20142;-60
2023/06/09 12:07:15;;;;;;;5.90;3.05;;;35.20;68.70;;;;;;5118061;27;19930;-59
2023/06/09 12:09:42;;;;;;;7.25;3.60;;;35.40;68.70;;;;;;5136262;27;20126;-59
2023/06/09 12:12:10;;;;;;;7.18;3.42;;;35.30;68.50;;;;;;5134340;27;20126;-62
2023/06/09 12:14:38;;;;;;;7.20;3.50;;;35.30;68.40;;;;;;5115914;27;20123;-60
2023/06/09 12:17:05;;;;;;;7.00;3.30;;;35.20;68.30;;;;;;5115396;27;20054;-60
2023/06/09 12:19:32;;;;;;;8.27;3.13;;;35.10;67.60;;;;;;5130004;27;20096;-60
2023/06/09 12:22:01;;;;;;;6.78;3.05;;;35.10;67.30;;;;;;5132239;27;20043;-61
2023/06/09 12:24:28;;;;;;;10.32;3.33;;;35.00;66.50;;;;;;5136278;27;20043;-60
2023/06/09 12:26:56;;;;;;;7.85;3.45;;;34.70;67.20;;;;;;5110532;27;20554;-59
2023/06/09 12:29:27;;;;;;;8.50;3.03;;;35.00;67.60;;;;;;5124605;27;20093;-59
2023/06/09 12:31:54;;;;;;;7.78;3.50;;;34.80;66.40;;;;;;5129315;27;20097;-59
2023/06/09 12:34:23;;;;;;;7.43;3.13;;;34.70;66.60;;;;;;5133392;27;20043;-61
2023/06/09 12:36:50;;;;;;;;;;;34.50;66.60;;;;;;5132966;27;20043;-60
2023/06/09 12:39:19;;;;;;;6.45;3.15;;;34.50;66.60;;;;;;5121798;27;19958;-59
2023/06/09 12:41:46;;;;;;;7.03;3.03;;;34.20;65.60;;;;;;5115569;27;20107;-61
2023/06/09 12:44:23;;;;;;;7.05;3.83;;;34.60;66.30;;;;;;5118698;27;20078;-60
2023/06/09 12:46:55;;;;;;;7.43;3.13;;;34.70;65.40;;;;;;5137559;27;20047;-60
2023/06/09 12:49:30;;;;;;;7.45;3.25;;;34.80;66.10;;;;;;5119221;27;21195;-60